Amber Lagoon — V7FS4 — position and weather

sailwx.info

Track history (hours):
 
Tides and Currents Weather Stations Pressure Air Temp Water Temp Dewpoint Dewpoint Depression Visibility Wind Speed Wind Dir Waves Ship Positions

Amber Lagoon

Last reported at 2016-Jul-20 21:04 UTC. Time now 2016-Jul-30 01:55 UTC.
Position N 25°40' W 079°30'.
Warning: this ship's position is 9 days out of date.

Length 192 m; draft 9.8 m.

Type: Cargo ship. MMSI: 538090116.

Date/timePositionNaut miles runAvg speedWind from/ knotsBaromVisibWave heightAir tempDewpointWater temp
2016-Jul-20 21:04N 25°40' W 079°30'610.7
2016-Jul-20 20:34N 25°45' W 079°29'1111.0
2016-Jul-20 19:34N 25°56' W 079°27'1111.2
2016-Jul-20 18:32N 26°07' W 079°23'  
2016-Jul-12 17:33N 36°26' W 030°19'1513.2
2016-Jul-12 16:27N 36°29' W 030°01'1213.0
2016-Jul-12 15:32N 36°32' W 029°47'1312.8
2016-Jul-12 14:33N 36°35' W 029°32'1312.7
2016-Jul-12 13:33N 36°39' W 029°17'1312.8
2016-Jul-12 12:31N 36°43' W 029°01'1212.6
2016-Jul-12 11:33N 36°46' W 028°46'1313.2
2016-Jul-12 10:33N 36°49' W 028°30'1514.8
2016-Jul-12 09:33N 36°53' W 028°12'1615.8
2016-Jul-12 08:33N 36°57' W 027°53'1212.2
2016-Jul-12 07:33N 37°00' W 027°39'1312.8
2016-Jul-12 06:33N 37°03' W 027°23'1313.0
2016-Jul-12 05:33N 37°07' W 027°07'1313.3
2016-Jul-12 04:34N 37°11' W 026°51'1312.8
2016-Jul-12 03:34N 37°14' W 026°36'1312.6
2016-Jul-12 02:33N 37°17' W 026°21'1413.6
2016-Jul-12 01:33N 37°20' W 026°04'1413.7
2016-Jul-12 00:33N 37°24' W 025°47'1313.2
2016-Jul-11 23:33N 37°28' W 025°31'1312.9
2016-Jul-11 22:34N 37°31' W 025°16'1313.0
2016-Jul-11 21:34N 37°34' W 024°60'1313.0
2016-Jul-11 20:34N 37°35' W 024°44'1312.8
2016-Jul-11 19:33N 37°36' W 024°27'1313.3
2016-Jul-11 18:33N 37°37' W 024°11'1313.0
2016-Jul-11 17:33N 37°38' W 023°54'1313.0
2016-Jul-11 16:33N 37°39' W 023°38'1313.0
2016-Jul-11 15:34N 37°41' W 023°21'1212.5
2016-Jul-11 14:33N 37°42' W 023°06'1812.2
2016-Jul-11 13:05N 37°43' W 022°43'812.4
2016-Jul-11 12:28N 37°43' W 022°33'  
Track history (hours):
 
Tides and Currents Weather Stations Pressure Air Temp Water Temp Dewpoint Dewpoint Depression Visibility Wind Speed Wind Dir Waves Ship Positions

Amber Lagoon

Last reported at 2016-Jul-20 21:04 UTC. Time now 2016-Jul-30 01:55 UTC.
Position N 25°40' W 079°30'.
Warning: this ship's position is 9 days out of date.

Length 192 m; draft 9.8 m.

Type: Cargo ship. MMSI: 538090116.

Date/timePositionNaut miles runAvg speedWind from/ knotsBaromVisibWave heightAir tempDewpointWater temp
2016-Jul-20 21:04N 25°40' W 079°30'610.7
2016-Jul-20 20:34N 25°45' W 079°29'1111.0
2016-Jul-20 19:34N 25°56' W 079°27'1111.2
2016-Jul-20 18:32N 26°07' W 079°23'  
2016-Jul-12 17:33N 36°26' W 030°19'1513.2
2016-Jul-12 16:27N 36°29' W 030°01'1213.0
2016-Jul-12 15:32N 36°32' W 029°47'1312.8
2016-Jul-12 14:33N 36°35' W 029°32'1312.7
2016-Jul-12 13:33N 36°39' W 029°17'1312.8
2016-Jul-12 12:31N 36°43' W 029°01'1212.6
2016-Jul-12 11:33N 36°46' W 028°46'1313.2
2016-Jul-12 10:33N 36°49' W 028°30'1514.8
2016-Jul-12 09:33N 36°53' W 028°12'1615.8
2016-Jul-12 08:33N 36°57' W 027°53'1212.2
2016-Jul-12 07:33N 37°00' W 027°39'1312.8
2016-Jul-12 06:33N 37°03' W 027°23'1313.0
2016-Jul-12 05:33N 37°07' W 027°07'1313.3
2016-Jul-12 04:34N 37°11' W 026°51'1312.8
2016-Jul-12 03:34N 37°14' W 026°36'1312.6
2016-Jul-12 02:33N 37°17' W 026°21'1413.6
2016-Jul-12 01:33N 37°20' W 026°04'1413.7
2016-Jul-12 00:33N 37°24' W 025°47'1313.2
2016-Jul-11 23:33N 37°28' W 025°31'1312.9
2016-Jul-11 22:34N 37°31' W 025°16'1313.0
2016-Jul-11 21:34N 37°34' W 024°60'1313.0
2016-Jul-11 20:34N 37°35' W 024°44'1312.8
2016-Jul-11 19:33N 37°36' W 024°27'1313.3
2016-Jul-11 18:33N 37°37' W 024°11'1313.0
2016-Jul-11 17:33N 37°38' W 023°54'1313.0
2016-Jul-11 16:33N 37°39' W 023°38'1313.0
2016-Jul-11 15:34N 37°41' W 023°21'1212.5
2016-Jul-11 14:33N 37°42' W 023°06'1812.2
2016-Jul-11 13:05N 37°43' W 022°43'812.4
2016-Jul-11 12:28N 37°43' W 022°33'  

Dump ship's entire track history